createdAt,value
2022-11-26T00:00:54.933Z,6.20
2022-11-26T00:03:23.545Z,6.10
2022-11-26T00:05:57.205Z,6.10
2022-11-26T00:08:32.492Z,6.10
2022-11-26T00:11:01.586Z,6.00
2022-11-26T00:13:32.916Z,6.00
2022-11-26T00:16:01.254Z,6.00
2022-11-26T00:18:29.568Z,6.00
2022-11-26T00:21:02.440Z,6.10
2022-11-26T00:23:30.858Z,6.00
2022-11-26T00:26:02.781Z,6.00
2022-11-26T00:28:33.986Z,6.00
2022-11-26T00:31:05.196Z,6.00
2022-11-26T00:33:34.491Z,6.00
2022-11-26T00:36:17.072Z,6.00
2022-11-26T00:38:46.061Z,5.90
2022-11-26T00:41:19.172Z,5.90
2022-11-26T00:43:47.988Z,5.90
2022-11-26T00:46:17.044Z,5.90
2022-11-26T00:48:45.905Z,5.90
2022-11-26T00:51:20.313Z,5.90
2022-11-26T00:53:49.731Z,5.90
2022-11-26T00:56:21.442Z,5.80
2022-11-26T00:58:51.589Z,5.80
2022-11-26T01:01:27.521Z,5.90
2022-11-26T01:03:55.918Z,5.90
2022-11-26T01:06:31.642Z,5.80
2022-11-26T01:09:00.225Z,5.80
2022-11-26T01:11:28.547Z,5.80
2022-11-26T01:13:57.072Z,5.80
2022-11-26T01:16:28.732Z,5.80
2022-11-26T01:19:00.774Z,5.70
2022-11-26T01:21:33.513Z,5.80
2022-11-26T01:24:01.799Z,5.70
2022-11-26T01:26:36.226Z,5.80
2022-11-26T01:29:04.504Z,5.70
2022-11-26T01:31:32.825Z,5.70
2022-11-26T01:34:01.153Z,5.70
2022-11-26T01:36:33.479Z,5.70
2022-11-26T01:39:05.792Z,5.70
2022-11-26T01:41:47.149Z,5.60
2022-11-26T01:44:21.262Z,5.60
2022-11-26T01:46:51.478Z,5.60
2022-11-26T01:49:23.500Z,5.50
2022-11-26T01:52:06.856Z,5.50
2022-11-26T01:54:38.449Z,5.50
2022-11-26T01:57:12.893Z,5.50
2022-11-26T01:59:44.668Z,5.50
2022-11-26T02:02:13.782Z,5.50
2022-11-26T02:04:48.479Z,5.60
2022-11-26T02:07:18.832Z,5.50
2022-11-26T02:09:48.934Z,5.50
2022-11-26T02:12:19.820Z,5.50
2022-11-26T02:14:48.911Z,5.50
2022-11-26T02:17:24.804Z,5.50
2022-11-26T02:20:37.155Z,5.60
2022-11-26T02:24:08.915Z,5.60
2022-11-26T02:27:22.551Z,5.50
2022-11-26T02:30:04.559Z,5.50
2022-11-26T02:32:43.717Z,5.60
2022-11-26T02:35:20.829Z,5.60
2022-11-26T02:37:52.825Z,5.60
2022-11-26T02:40:21.570Z,5.60
2022-11-26T02:42:49.844Z,5.50
2022-11-26T02:45:23.898Z,5.50
2022-11-26T02:47:55.332Z,5.60
2022-11-26T02:50:28.059Z,5.60
2022-11-26T02:52:58.816Z,5.60
2022-11-26T02:55:31.438Z,5.50
2022-11-26T02:58:00.500Z,5.50
2022-11-26T03:00:30.287Z,5.50
2022-11-26T03:03:03.048Z,5.50
2022-11-26T03:05:36.709Z,5.50
2022-11-26T03:08:07.002Z,5.40
2022-11-26T03:10:35.678Z,5.40
2022-11-26T03:13:03.947Z,5.40
2022-11-26T03:15:33.562Z,5.40
2022-11-26T03:18:01.854Z,5.40
2022-11-26T03:20:30.185Z,5.40
2022-11-26T03:22:58.634Z,5.30
2022-11-26T03:25:27.166Z,5.30
2022-11-26T03:27:55.435Z,5.30
2022-11-26T03:30:24.394Z,5.30
2022-11-26T03:32:54.013Z,5.20
2022-11-26T03:35:22.416Z,5.20
2022-11-26T03:37:50.675Z,5.20
2022-11-26T03:40:19.225Z,5.20
2022-11-26T03:42:47.486Z,5.20
2022-11-26T03:45:15.925Z,5.20
2022-11-26T03:47:44.190Z,5.20
2022-11-26T03:50:14.170Z,5.20
2022-11-26T03:52:42.474Z,5.10
2022-11-26T03:55:11.280Z,5.10
2022-11-26T03:57:39.891Z,5.10
2022-11-26T04:00:10.462Z,5.10
2022-11-26T04:02:38.956Z,5.10
2022-11-26T04:05:08.597Z,5.10
2022-11-26T04:07:38.342Z,5.10
2022-11-26T04:10:08.513Z,5.10
2022-11-26T04:12:36.851Z,5.10
2022-11-26T04:15:05.883Z,5.00
2022-11-26T04:17:34.200Z,5.00
2022-11-26T04:20:02.471Z,5.00
2022-11-26T04:22:30.738Z,5.00
2022-11-26T04:25:00.382Z,5.00
2022-11-26T04:27:28.612Z,4.90
2022-11-26T04:29:56.847Z,4.90
2022-11-26T04:32:25.547Z,4.90
2022-11-26T04:34:53.844Z,5.00
2022-11-26T04:37:22.100Z,5.00
2022-11-26T04:39:50.397Z,5.00
2022-11-26T04:42:20.090Z,5.00
2022-11-26T04:44:48.368Z,5.00
2022-11-26T04:47:16.841Z,4.90
2022-11-26T04:49:45.289Z,4.90
2022-11-26T04:52:13.588Z,5.00
2022-11-26T04:54:41.889Z,5.00
2022-11-26T04:57:10.439Z,5.00
2022-11-26T04:59:40.055Z,5.00
2022-11-26T05:02:08.367Z,5.00
2022-11-26T05:04:36.820Z,5.10
2022-11-26T05:07:05.956Z,5.10
2022-11-26T05:09:34.444Z,5.00
2022-11-26T05:12:02.959Z,5.00
2022-11-26T05:14:31.203Z,5.00
2022-11-26T05:17:01.225Z,5.00
2022-11-26T05:19:29.625Z,5.00
2022-11-26T05:21:57.902Z,5.00
2022-11-26T05:24:26.439Z,5.00
2022-11-26T05:26:57.070Z,5.00
2022-11-26T05:29:25.910Z,4.90
2022-11-26T05:31:54.465Z,5.00
2022-11-26T05:34:24.302Z,5.00
2022-11-26T05:36:52.525Z,4.90
2022-11-26T05:39:21.021Z,5.00
2022-11-26T05:41:49.448Z,4.90
2022-11-26T05:44:17.751Z,4.90
2022-11-26T05:46:46.039Z,4.90
2022-11-26T05:49:14.440Z,4.90
2022-11-26T05:51:44.093Z,4.90
2022-11-26T05:54:15.016Z,4.90
2022-11-26T05:56:44.510Z,4.90
2022-11-26T05:59:12.935Z,4.90
2022-11-26T06:01:41.204Z,4.90
2022-11-26T06:04:09.767Z,4.90
2022-11-26T06:06:38.108Z,4.90
2022-11-26T06:09:07.791Z,4.90
2022-11-26T06:11:36.083Z,4.90
2022-11-26T06:14:04.370Z,4.80
2022-11-26T06:16:32.901Z,4.80
2022-11-26T06:19:01.204Z,4.90
2022-11-26T06:21:29.553Z,4.90
2022-11-26T06:23:59.800Z,4.90
2022-11-26T06:26:29.703Z,4.90
2022-11-26T06:28:58.009Z,4.90
2022-11-26T06:31:26.389Z,4.90
2022-11-26T06:33:56.203Z,4.90
2022-11-26T06:36:24.907Z,4.90
2022-11-26T06:38:53.267Z,4.90
2022-11-26T06:41:21.627Z,4.90
2022-11-26T06:43:51.340Z,4.90
2022-11-26T06:46:19.759Z,4.90
2022-11-26T06:48:48.118Z,4.90
2022-11-26T06:51:20.499Z,4.90
2022-11-26T06:53:49.007Z,4.90
2022-11-26T06:56:19.319Z,4.90
2022-11-26T06:58:48.332Z,4.90
2022-11-26T07:01:20.389Z,4.90
2022-11-26T07:03:49.023Z,4.90
2022-11-26T07:06:18.971Z,4.90
2022-11-26T07:08:48.241Z,4.90
2022-11-26T07:11:16.661Z,4.90
2022-11-26T07:13:45.462Z,4.90
2022-11-26T07:16:14.698Z,4.90
2022-11-26T07:18:44.670Z,4.90
2022-11-26T07:21:15.154Z,4.80
2022-11-26T07:23:43.733Z,4.90
2022-11-26T07:26:13.799Z,4.80
2022-11-26T07:28:42.987Z,4.80
2022-11-26T07:31:16.908Z,4.80
2022-11-26T07:33:47.650Z,4.80
2022-11-26T07:36:18.930Z,4.80
2022-11-26T07:38:47.757Z,4.80
2022-11-26T07:41:20.191Z,4.80
2022-11-26T07:43:49.882Z,4.80
2022-11-26T07:46:22.977Z,4.80
2022-11-26T07:48:52.837Z,4.90
2022-11-26T07:51:24.640Z,4.90
2022-11-26T07:53:53.271Z,4.90
2022-11-26T07:56:21.656Z,4.90
2022-11-26T07:58:50.132Z,4.90
2022-11-26T08:01:24.381Z,4.90
2022-11-26T08:03:56.771Z,4.90
2022-11-26T08:06:28.348Z,5.00
2022-11-26T08:08:56.695Z,5.00
2022-11-26T08:11:27.340Z,5.00
2022-11-26T08:13:58.069Z,5.10
2022-11-26T08:16:28.794Z,5.20
2022-11-26T08:19:00.582Z,5.20
2022-11-26T08:21:29.822Z,5.30
2022-11-26T08:23:58.537Z,5.30
2022-11-26T08:26:35.865Z,5.40
2022-11-26T08:29:06.847Z,5.50
2022-11-26T08:31:37.283Z,5.60
2022-11-26T08:34:11.881Z,5.60
2022-11-26T08:36:40.308Z,5.70
2022-11-26T08:39:08.813Z,5.80
2022-11-26T08:41:37.144Z,5.90
2022-11-26T08:44:07.210Z,5.90
2022-11-26T08:46:36.522Z,6.00
2022-11-26T08:49:05.233Z,6.00
2022-11-26T08:51:37.131Z,6.10
2022-11-26T08:54:05.932Z,6.20
2022-11-26T08:56:34.869Z,6.30
2022-11-26T08:59:03.919Z,6.40
2022-11-26T09:01:34.541Z,6.50
2022-11-26T09:04:04.635Z,6.60
2022-11-26T09:06:37.815Z,6.70
2022-11-26T09:09:13.919Z,6.90
2022-11-26T09:11:46.704Z,7.20
2022-11-26T09:14:16.677Z,7.30
2022-11-26T09:16:45.437Z,7.30
2022-11-26T09:19:15.776Z,7.40
2022-11-26T09:21:45.653Z,7.30
2022-11-26T09:24:14.283Z,7.40
2022-11-26T09:26:43.009Z,7.40
2022-11-26T09:29:15.181Z,7.50
2022-11-26T09:32:07.395Z,7.50
2022-11-26T09:34:33.302Z,7.50
2022-11-26T09:37:02.985Z,7.60
2022-11-26T09:39:31.554Z,7.60
2022-11-26T09:42:06.437Z,7.60
2022-11-26T09:44:48.285Z,7.60
2022-11-26T09:47:20.213Z,7.70
2022-11-26T09:50:02.944Z,7.70
2022-11-26T09:52:43.066Z,7.70
2022-11-26T09:55:17.430Z,7.70
2022-11-26T09:57:51.850Z,7.70
2022-11-26T10:00:27.701Z,7.70
2022-11-26T10:02:58.285Z,7.70
2022-11-26T10:05:42.464Z,7.80
2022-11-26T10:08:56.568Z,7.80
2022-11-26T10:11:34.527Z,7.90
2022-11-26T10:14:19.833Z,7.80
2022-11-26T10:16:58.938Z,7.80
2022-11-26T10:19:39.166Z,7.80
2022-11-26T10:22:20.296Z,7.90
2022-11-26T10:24:51.060Z,7.90
2022-11-26T10:27:22.365Z,7.90
2022-11-26T10:29:55.660Z,7.90
2022-11-26T10:32:28.750Z,8.00
2022-11-26T10:34:59.199Z,8.10
2022-11-26T10:37:29.523Z,8.10
2022-11-26T10:40:12.700Z,8.10
2022-11-26T10:42:44.078Z,8.20
2022-11-26T10:45:21.189Z,8.20
2022-11-26T10:47:49.442Z,8.20
2022-11-26T10:53:22.359Z,8.20
2022-11-26T10:55:53.768Z,8.20
2022-11-26T10:58:25.753Z,8.30
2022-11-26T11:01:01.391Z,8.30
2022-11-26T11:06:40.002Z,8.50
2022-11-26T11:09:29.058Z,8.50
2022-11-26T11:12:24.360Z,8.50
2022-11-26T11:14:53.388Z,8.60
2022-11-26T11:17:32.393Z,8.60
2022-11-26T11:20:07.898Z,8.70
2022-11-26T11:22:36.390Z,8.70
2022-11-26T11:25:04.955Z,8.70
2022-11-26T11:27:44.555Z,8.80
2022-11-26T11:30:26.508Z,8.80
2022-11-26T11:32:57.998Z,8.80
2022-11-26T11:35:30.376Z,8.90
2022-11-26T11:37:59.915Z,8.90
2022-11-26T11:40:30.975Z,9.00
2022-11-26T11:43:01.934Z,9.10
2022-11-26T11:45:35.520Z,9.20
2022-11-26T11:48:17.992Z,9.30
2022-11-26T11:50:56.858Z,9.30
2022-11-26T11:53:40.176Z,9.30
2022-11-26T11:56:26.073Z,9.40
2022-11-26T11:59:47.848Z,9.50
2022-11-26T12:02:37.478Z,9.70
2022-11-26T12:05:29.082Z,9.70
2022-11-26T12:08:12.270Z,9.80
2022-11-26T12:10:51.925Z,9.90
2022-11-26T12:13:23.771Z,9.90
2022-11-26T12:15:59.465Z,10.00
2022-11-26T12:18:35.873Z,10.00
2022-11-26T12:21:11.010Z,9.90
2022-11-26T12:23:48.820Z,9.80
2022-11-26T12:26:23.569Z,9.70
2022-11-26T12:28:58.179Z,9.80
2022-11-26T12:31:34.617Z,9.80
2022-11-26T12:34:12.695Z,9.90
2022-11-26T12:36:49.259Z,10.00
2022-11-26T12:39:28.783Z,10.10
2022-11-26T12:42:01.728Z,10.10
2022-11-26T12:44:38.913Z,10.20
2022-11-26T12:47:18.786Z,10.30
2022-11-26T12:50:04.909Z,10.40
2022-11-26T12:52:41.170Z,10.50
2022-11-26T12:55:18.914Z,10.50
2022-11-26T12:57:53.064Z,10.50
2022-11-26T13:00:30.102Z,10.60
2022-11-26T13:03:03.402Z,10.60
2022-11-26T13:05:48.606Z,10.60
2022-11-26T13:08:37.377Z,10.60
2022-11-26T13:11:22.986Z,10.50
2022-11-26T13:13:59.664Z,10.40
2022-11-26T13:16:39.120Z,10.40
2022-11-26T13:19:13.764Z,10.30
2022-11-26T13:22:01.579Z,10.20
2022-11-26T13:24:51.958Z,10.20
2022-11-26T13:27:39.348Z,10.10
2022-11-26T13:30:21.220Z,10.10
2022-11-26T13:33:32.791Z,10.10
2022-11-26T13:36:35.518Z,10.00
2022-11-26T13:39:42.291Z,10.00
2022-11-26T13:42:33.535Z,10.00
2022-11-26T13:45:15.722Z,10.00
2022-11-26T13:47:47.667Z,10.00
2022-11-26T13:50:21.374Z,10.00
2022-11-26T13:52:57.425Z,10.00
2022-11-26T13:55:30.654Z,10.00
2022-11-26T13:58:02.824Z,10.00
2022-11-26T14:00:34.139Z,10.00
2022-11-26T14:03:04.188Z,10.00
2022-11-26T14:06:17.122Z,10.00
2022-11-26T14:08:51.388Z,10.00
2022-11-26T14:11:56.902Z,10.00
2022-11-26T14:14:34.329Z,10.00
2022-11-26T14:17:31.107Z,10.00
2022-11-26T14:20:13.556Z,10.00
2022-11-26T14:22:41.985Z,10.00
2022-11-26T14:25:15.765Z,10.00
2022-11-26T14:27:53.732Z,10.00
2022-11-26T14:30:27.884Z,10.00
2022-11-26T14:33:16.235Z,10.00
2022-11-26T14:35:57.039Z,10.00
2022-11-26T14:38:31.475Z,10.10
2022-11-26T14:41:02.744Z,10.10
2022-11-26T14:43:31.291Z,10.10
2022-11-26T14:46:07.623Z,10.10
2022-11-26T14:48:42.817Z,10.10
2022-11-26T14:51:11.273Z,10.10
2022-11-26T14:53:48.965Z,10.10
2022-11-26T14:56:22.692Z,10.10
2022-11-26T14:58:55.410Z,10.00
2022-11-26T15:01:25.838Z,10.00
2022-11-26T15:04:00.815Z,10.00
2022-11-26T15:06:34.989Z,9.90
2022-11-26T15:09:10.964Z,10.00
2022-11-26T15:11:46.967Z,9.90
2022-11-26T15:14:26.774Z,9.90
2022-11-26T15:16:59.415Z,9.90
2022-11-26T15:19:33.045Z,9.80
2022-11-26T15:22:06.479Z,9.80
2022-11-26T15:24:35.100Z,9.80
2022-11-26T15:27:04.978Z,9.80
2022-11-26T15:29:41.153Z,9.70
2022-11-26T15:32:28.612Z,9.70
2022-11-26T15:35:00.491Z,9.60
2022-11-26T15:37:29.142Z,9.60
2022-11-26T15:40:23.780Z,9.50
2022-11-26T15:42:58.792Z,9.50
2022-11-26T15:45:41.749Z,9.50
2022-11-26T15:48:27.491Z,9.40
2022-11-26T15:51:01.459Z,9.30
2022-11-26T15:53:34.533Z,9.30
2022-11-26T15:56:05.099Z,9.20
2022-11-26T15:58:38.330Z,9.20
2022-11-26T16:01:14.451Z,9.20
2022-11-26T16:03:47.218Z,9.20
2022-11-26T16:06:35.368Z,9.20
2022-11-26T16:09:27.889Z,9.20
2022-11-26T16:12:01.559Z,9.20
2022-11-26T16:14:37.018Z,9.10
2022-11-26T16:17:11.744Z,9.10
2022-11-26T16:19:48.571Z,9.00
2022-11-26T16:22:22.814Z,8.90
2022-11-26T16:25:04.124Z,9.00
2022-11-26T16:27:34.407Z,8.90
2022-11-26T16:30:14.806Z,8.90
2022-11-26T16:32:43.106Z,8.90
2022-11-26T16:35:37.703Z,8.80
2022-11-26T16:38:00.435Z,8.80
2022-11-26T16:40:30.241Z,8.80
2022-11-26T16:42:58.686Z,8.80
2022-11-26T16:45:28.373Z,8.70
2022-11-26T16:47:57.253Z,8.70
2022-11-26T16:50:27.772Z,8.70
2022-11-26T16:52:57.035Z,8.70
2022-11-26T16:55:27.350Z,8.70
2022-11-26T16:58:00.098Z,8.60
2022-11-26T17:00:29.738Z,8.60
2022-11-26T17:02:58.143Z,8.50
2022-11-26T17:05:26.543Z,8.50
2022-11-26T17:07:57.824Z,8.50
2022-11-26T17:10:29.224Z,8.50
2022-11-26T17:12:57.998Z,8.50
2022-11-26T17:15:26.824Z,8.50
2022-11-26T17:18:03.442Z,8.40
2022-11-26T17:20:31.840Z,8.30
2022-11-26T17:23:00.272Z,8.30
2022-11-26T17:25:28.643Z,8.30
2022-11-26T17:27:57.049Z,8.30
2022-11-26T17:30:26.140Z,8.30
2022-11-26T17:32:55.963Z,8.30
2022-11-26T17:35:24.316Z,8.20
2022-11-26T17:37:52.695Z,8.20
2022-11-26T17:40:24.264Z,8.20
2022-11-26T17:42:52.610Z,8.30
2022-11-26T17:45:21.574Z,8.20
2022-11-26T17:47:51.148Z,8.10
2022-11-26T17:50:25.706Z,8.10
2022-11-26T17:52:54.843Z,8.10
2022-11-26T17:55:25.465Z,8.10
2022-11-26T17:57:55.213Z,8.10
2022-11-26T18:00:28.177Z,8.10
2022-11-26T18:02:57.489Z,8.10
2022-11-26T18:05:28.280Z,8.10
2022-11-26T18:07:56.687Z,8.10
2022-11-26T18:10:26.004Z,8.10
2022-11-26T18:12:55.448Z,8.10
2022-11-26T18:15:27.594Z,8.00
2022-11-26T18:17:56.874Z,8.00
2022-11-26T18:20:29.989Z,8.00
2022-11-26T18:23:01.188Z,7.90
2022-11-26T18:25:30.669Z,7.80
2022-11-26T18:27:58.988Z,7.70
2022-11-26T18:30:30.650Z,7.70
2022-11-26T18:32:59.211Z,7.70
2022-11-26T18:35:28.931Z,7.60
2022-11-26T18:37:57.253Z,7.60
2022-11-26T18:40:25.737Z,7.60
2022-11-26T18:42:54.320Z,7.60
2022-11-26T18:45:22.858Z,7.60
2022-11-26T18:47:51.187Z,7.60
2022-11-26T18:50:20.612Z,7.70
2022-11-26T18:52:50.348Z,7.70
2022-11-26T18:55:19.499Z,7.70
2022-11-26T18:57:47.827Z,7.80
2022-11-26T19:00:17.149Z,7.80
2022-11-26T19:02:45.501Z,7.80
2022-11-26T19:05:13.985Z,7.70
2022-11-26T19:07:42.340Z,7.60
2022-11-26T19:10:13.442Z,7.60
2022-11-26T19:12:41.764Z,7.60
2022-11-26T19:15:10.669Z,7.60
2022-11-26T19:17:39.078Z,7.50
2022-11-26T19:20:09.308Z,7.50
2022-11-26T19:22:38.162Z,7.50
2022-11-26T19:25:07.807Z,7.50
2022-11-26T19:27:37.465Z,7.50
2022-11-26T19:30:07.617Z,7.50
2022-11-26T19:32:36.070Z,7.40
2022-11-26T19:35:06.193Z,7.40
2022-11-26T19:37:34.649Z,7.40
2022-11-26T19:40:02.987Z,7.40
2022-11-26T19:42:31.940Z,7.30
2022-11-26T19:45:01.673Z,7.40
2022-11-26T19:47:30.035Z,7.30
2022-11-26T19:49:58.434Z,7.30
2022-11-26T19:52:27.003Z,7.30
2022-11-26T19:54:55.312Z,7.30
2022-11-26T19:57:23.734Z,7.20
2022-11-26T19:59:52.682Z,7.20
2022-11-26T20:02:22.452Z,7.20
2022-11-26T20:04:50.758Z,7.10
2022-11-26T20:07:19.153Z,7.10
2022-11-26T20:09:47.589Z,7.10
2022-11-26T20:12:15.878Z,7.00
2022-11-26T20:14:44.299Z,6.90
2022-11-26T20:17:12.650Z,6.90
2022-11-26T20:19:42.623Z,6.90
2022-11-26T20:22:11.139Z,6.90
2022-11-26T20:24:39.564Z,6.90
2022-11-26T20:27:08.034Z,6.90
2022-11-26T20:29:36.475Z,6.90
2022-11-26T20:32:05.178Z,6.90
2022-11-26T20:34:33.776Z,6.90
2022-11-26T20:37:03.900Z,6.90
2022-11-26T20:39:37.345Z,6.90
2022-11-26T20:42:06.096Z,7.00
2022-11-26T20:44:34.492Z,6.90
2022-11-26T20:47:02.800Z,6.90
2022-11-26T20:49:35.261Z,6.80
2022-11-26T20:52:06.881Z,6.80
2022-11-26T20:54:35.698Z,6.80
2022-11-26T20:57:05.984Z,6.80
2022-11-26T20:59:34.711Z,6.80
2022-11-26T21:02:03.369Z,6.80
2022-11-26T21:04:31.946Z,6.80
2022-11-26T21:07:00.532Z,6.80
2022-11-26T21:09:30.425Z,6.70
2022-11-26T21:11:58.848Z,6.80
2022-11-26T21:14:27.239Z,6.70
2022-11-26T21:16:55.783Z,6.70
2022-11-26T21:19:24.797Z,6.70
2022-11-26T21:21:53.361Z,6.70
2022-11-26T21:24:22.045Z,6.70
2022-11-26T21:26:51.951Z,6.70
2022-11-26T21:29:20.605Z,6.70
2022-11-26T21:31:49.108Z,6.70
2022-11-26T21:34:17.546Z,6.70
2022-11-26T21:36:45.892Z,6.60
2022-11-26T21:39:17.592Z,6.70
2022-11-26T21:41:46.123Z,6.60
2022-11-26T21:44:16.158Z,6.60
2022-11-26T21:46:44.730Z,6.50
2022-11-26T21:49:13.195Z,6.50
2022-11-26T21:51:42.555Z,6.40
2022-11-26T21:54:11.115Z,6.40
2022-11-26T21:56:39.749Z,6.30
2022-11-26T21:59:08.115Z,6.30
2022-11-26T22:01:39.105Z,6.30
2022-11-26T22:04:12.131Z,6.30
2022-11-26T22:06:40.601Z,6.20
2022-11-26T22:09:09.887Z,6.20
2022-11-26T22:11:41.991Z,6.20
2022-11-26T22:14:14.542Z,6.20
2022-11-26T22:16:44.372Z,6.20
2022-11-26T22:19:12.755Z,6.10
2022-11-26T22:21:43.127Z,6.10
2022-11-26T22:24:15.488Z,6.00
2022-11-26T22:26:44.710Z,6.00
2022-11-26T22:29:13.821Z,5.90
2022-11-26T22:31:44.490Z,6.00
2022-11-26T22:34:15.654Z,5.90
2022-11-26T22:36:44.719Z,5.90
2022-11-26T22:39:15.173Z,5.80
2022-11-26T22:41:45.364Z,5.80
2022-11-26T22:44:14.577Z,5.80
2022-11-26T22:46:44.734Z,5.70
2022-11-26T22:49:15.667Z,5.60
2022-11-26T22:51:44.147Z,5.60
2022-11-26T22:54:15.516Z,5.60
2022-11-26T22:56:43.882Z,5.60
2022-11-26T22:59:14.882Z,5.60
2022-11-26T23:01:44.991Z,5.60
2022-11-26T23:04:13.712Z,5.60
2022-11-26T23:06:42.393Z,5.50
2022-11-26T23:09:13.444Z,5.50
2022-11-26T23:11:43.421Z,5.50
2022-11-26T23:14:12.346Z,5.50
2022-11-26T23:16:44.200Z,5.50
2022-11-26T23:19:15.664Z,5.50
2022-11-26T23:21:46.796Z,5.40
2022-11-26T23:24:16.178Z,5.40
2022-11-26T23:26:45.036Z,5.40
2022-11-26T23:29:13.662Z,5.40
2022-11-26T23:31:45.111Z,5.30
2022-11-26T23:34:14.003Z,5.30
2022-11-26T23:36:42.307Z,5.30
2022-11-26T23:39:13.775Z,5.30
2022-11-26T23:41:42.134Z,5.20
2022-11-26T23:44:10.470Z,5.30
2022-11-26T23:46:38.906Z,5.30
2022-11-26T23:49:08.736Z,5.30
2022-11-26T23:51:37.084Z,5.20
2022-11-26T23:54:05.740Z,5.20
2022-11-26T23:56:36.586Z,5.20
2022-11-26T23:59:06.215Z,5.20
